Latest Weather Observations for Oakey

IDQ60801

Issued at 7:05 pm EST Wednesday 23 April 2014 (issued every 30 minutes, with the page automatically refreshed every 10 minutes)

About weather observations | Map of weather stations | Latest weather observations for QLD | Other Formats
Station Details ID: 041359 Name: OAKEY AERO Lat: -27.40 Lon: 151.74 Height: 405.69 m
Data from the previous 72 hours. | See also: Recent months at Oakey
Date/Time
EST
Temp
°C
App
Temp
°C
Dew
Point
Rel
Hum
%
Delta-T
°C
Wind Press
QNH
hPa
Press
MSL
hPa
Rain
since 9 am
mm
Dir
 
Spd
km/h
Gust
km/h
Spd
kts
Gust
kts
23/07:00pm 17.9 16.1 9.5 58 4.5 NE 9 11 5 6 1018.1 - 0.0
23/06:30pm 17.7 15.4 9.1 57 4.6 ENE 11 13 6 7 1017.8 - 0.0
23/06:00pm 18.8 16.1 9.0 53 5.2 ENE 13 15 7 8 1017.6 1016.3 0.0
23/05:30pm 20.9 18.0 8.2 44 6.8 ENE 13 15 7 8 1017.3 - 0.0
23/05:00pm 23.6 20.3 8.1 37 8.4 NE 15 19 8 10 1017.0 - 0.0
23/04:30pm 24.8 21.6 8.3 35 9.0 NE 15 20 8 11 1016.8 - 0.0
23/04:00pm 25.4 22.7 7.5 32 9.7 NNE 11 17 6 9 1016.7 - 0.0
23/03:30pm 25.6 22.6 7.7 32 9.7 E 13 17 7 9 1016.7 - 0.0
23/03:00pm 26.0 22.9 8.9 34 9.5 NE 15 22 8 12 1016.7 1015.4 0.0
23/02:30pm 26.3 23.7 7.8 31 10.1 NE 11 22 6 12 1016.9 - 0.0
23/02:00pm 25.9 22.9 7.5 31 9.9 ESE 13 19 7 10 1017.1 - 0.0
23/01:30pm 26.9 24.4 8.4 31 10.2 ENE 11 19 6 10 1017.3 - 0.0
23/01:00pm 26.3 23.4 8.3 32 9.9 NNE 13 24 7 13 1017.7 - 0.0
23/12:30pm 25.2 22.5 7.3 32 9.6 ESE 11 17 6 9 1018.3 - 0.0
23/12:00pm 25.1 22.8 9.0 36 8.9 SE 11 19 6 10 1018.9 1017.6 0.0
23/11:30am 24.4 21.8 9.2 38 8.4 NNE 13 20 7 11 1019.5 - 0.0
23/11:00am 24.8 22.2 9.5 38 8.5 NE 13 22 7 12 1019.9 - 0.0
23/10:30am 24.3 22.5 10.9 43 7.6 NE 11 19 6 10 1020.3 - 0.0
23/10:00am 23.6 21.8 11.0 45 7.2 NNE 11 17 6 9 1020.5 - 0.0
23/09:30am 22.9 21.1 12.2 51 6.2 NE 13 15 7 8 1020.6 - 0.0
23/09:00am 21.3 20.7 14.7 66 3.9 NNE 11 17 6 9 1020.9 1019.6 0.0
23/08:30am 19.5 19.5 15.2 76 2.6 NE 9 13 5 7 1021.2 - 0.0
23/08:00am 17.7 17.2 15.0 84 1.6 ENE 11 13 6 7 1021.0 - 0.0
23/07:30am 15.1 15.0 14.0 93 0.6 NE 7 9 4 5 1020.9 - 0.0
23/07:00am 12.2 10.9 11.3 94 0.5 NE 9 9 5 5 1020.6 - 0.0
23/06:30am 12.1 10.4 11.2 94 0.5 ENE 11 13 6 7 1020.4 - 0.0
23/06:00am 12.2 10.1 11.3 94 0.5 NE 13 15 7 8 1020.1 1018.8 0.0
23/05:30am 12.6 10.8 12.0 96 0.3 NE 13 15 7 8 1019.8 - 0.0
23/05:00am 11.6 9.3 10.3 92 0.7 NE 13 13 7 7 1019.7 - 0.0
23/04:30am 12.4 10.7 11.3 93 0.6 E 11 13 6 7 1019.7 - 0.0
23/04:00am 12.6 11.2 10.8 89 1.0 NE 9 11 5 6 1019.4 - 0.0
23/03:30am 13.5 11.7 12.2 92 0.7 NE 13 15 7 8 1019.2 - 0.0
23/03:00am 13.0 11.0 11.6 91 0.8 ESE 13 15 7 8 1019.2 1017.9 0.0
23/02:30am 13.3 11.4 11.9 91 0.8 ENE 13 13 7 7 1019.3 - 0.0
23/02:00am 13.4 12.3 11.8 90 0.9 E 9 11 5 6 1019.7 - 0.0
23/01:30am 13.7 12.6 12.1 90 0.9 ESE 9 11 5 6 1019.9 - 0.0
23/01:19am 13.8 12.4 12.2 90 0.9 SSE 11 13 6 7 1020.0 - 0.0
23/01:00am 14.0 13.5 12.0 88 1.1 ESE 6 7 3 4 1020.1 - 0.0
23/12:30am 14.4 12.7 12.6 89 1.0 NE 13 15 7 8 1020.3 - 0.0
23/12:00am 14.5 13.2 12.4 87 1.2 NE 11 13 6 7 1020.4 1019.2 0.0
 
Date/Time
EST
Temp
°C
App
Temp
°C
Dew
Point
Rel
Hum
%
Delta-T
°C
Wind Press
QNH
hPa
Press
MSL
hPa
Rain
since 9 am
mm
Dir
 
Spd
km/h
Gust
km/h
Spd
kts
Gust
kts
22/11:30pm 15.2 15.0 12.9 86 1.3 ENE 6 9 3 5 1020.5 - 0.0
22/11:00pm 15.7 13.9 13.2 85 1.4 NE 15 17 8 9 1020.6 - 0.0
22/10:30pm 14.9 12.6 11.9 82 1.7 NE 15 17 8 9 1020.7 - 0.0
22/10:00pm 15.4 12.7 11.8 79 2.0 NE 17 19 9 10 1020.7 - 0.0
22/09:30pm 15.1 12.3 11.3 78 2.1 NE 17 20 9 11 1020.7 - 0.0
22/09:00pm 14.9 12.7 10.7 76 2.3 NE 13 17 7 9 1020.6 1019.4 0.0
22/08:30pm 16.7 15.6 10.8 68 3.2 NE 7 9 4 5 1020.6 - 0.0
22/08:00pm 16.3 15.3 10.4 68 3.2 NE 6 11 3 6 1020.3 - 0.0
22/07:30pm 16.8 15.0 10.9 68 3.2 NE 11 15 6 8 1020.2 - 0.0
22/07:00pm 17.8 15.6 10.7 63 3.9 NE 13 17 7 9 1020.0 - 0.0
22/06:30pm 19.4 16.9 10.9 58 4.7 ENE 15 19 8 10 1019.9 - 0.0
22/06:00pm 20.3 17.7 10.7 54 5.3 NE 15 19 8 10 1019.6 1018.3 0.0
22/05:30pm 21.8 18.7 10.3 48 6.4 NE 17 24 9 13 1019.5 - 0.0
22/05:00pm 22.9 19.2 10.0 44 7.2 NE 20 30 11 16 1019.2 - 0.0
22/04:30pm 24.0 20.4 12.0 47 6.9 NE 22 28 12 15 1019.3 - 0.0
22/04:00pm 25.0 21.8 11.2 42 7.9 NE 19 26 10 14 1019.2 - 0.0
22/03:30pm 25.8 23.2 10.8 39 8.6 NE 15 20 8 11 1019.1 - 0.0
22/03:00pm 24.8 23.3 9.1 37 8.7 NNE 7 13 4 7 1019.2 1017.9 0.0
22/02:30pm 25.8 24.0 9.6 36 9.1 NE 9 17 5 9 1019.1 - 0.0
22/02:00pm 26.0 23.9 9.8 36 9.1 NE 11 17 6 9 1019.4 - 0.0
22/01:30pm 25.9 23.8 9.7 36 9.1 ENE 11 19 6 10 1019.8 - 0.0
22/01:00pm 25.8 23.6 10.8 39 8.6 NE 13 22 7 12 1020.1 - 0.0
22/12:30pm 25.2 21.9 9.5 37 8.8 NE 17 28 9 15 1020.3 - 0.0
22/12:00pm 25.4 23.5 11.9 43 7.8 NE 13 20 7 11 1021.1 1019.8 0.0
22/11:30am 25.1 23.3 12.0 44 7.6 NNE 13 20 7 11 1021.4 - 0.0
22/11:00am 24.7 23.3 10.9 42 7.9 N 9 13 5 7 1022.0 - 0.0
22/10:30am 23.2 22.1 11.9 49 6.5 W 9 13 5 7 1022.7 - 0.0
22/10:00am 22.9 22.3 12.2 51 6.2 NNW 7 13 4 7 1023.0 - 0.0
22/09:30am 22.2 21.4 11.6 51 6.0 NNE 7 13 4 7 1022.9 - 0.0
22/09:00am 21.1 20.7 13.0 60 4.7 NE 7 13 4 7 1022.6 1021.4 0.0
22/08:30am 19.8 18.7 13.0 65 3.9 ENE 11 15 6 8 1022.7 - 0.0
22/08:00am 17.6 16.9 13.3 76 2.5 SE 9 13 5 7 1022.8 - 0.0
22/07:30am 14.6 13.9 12.1 85 1.4 SSE 7 9 4 5 1022.7 - 0.0
22/07:00am 12.4 10.6 11.0 91 0.7 SSE 11 13 6 7 1022.5 - 0.0
22/06:30am 10.6 8.4 9.5 93 0.6 SE 11 13 6 7 1022.2 - 0.0
22/06:00am 10.9 8.4 9.8 93 0.6 ESE 13 15 7 8 1021.9 1020.6 0.0
22/05:30am 11.3 9.0 10.4 94 0.5 ESE 13 13 7 7 1021.7 - 0.0
22/05:00am 11.4 9.0 10.1 92 0.7 ENE 13 15 7 8 1021.6 - 0.0
22/04:30am 11.7 10.1 10.3 91 0.7 E 9 11 5 6 1021.3 - 0.0
22/04:00am 11.9 9.9 10.1 89 0.9 E 11 13 6 7 1021.2 - 0.0
22/03:30am 13.0 11.3 11.1 88 1.0 E 11 11 6 6 1021.2 - 0.0
22/03:00am 13.5 12.3 11.7 89 1.0 SE 9 11 5 6 1021.1 1019.8 0.0
22/02:30am 14.0 12.4 11.7 86 1.3 NNE 11 13 6 7 1021.1 - 0.0
22/02:00am 14.8 13.4 12.3 85 1.4 NE 11 15 6 8 1021.0 - 0.0
22/01:30am 14.7 12.9 12.0 84 1.5 NNE 13 15 7 8 1021.3 - 0.0
22/01:00am 14.7 12.8 11.8 83 1.6 NNE 13 15 7 8 1021.3 - 0.0
22/12:30am 14.8 12.9 11.8 82 1.7 NE 13 15 7 8 1021.2 - 0.0
22/12:00am 15.6 13.1 12.4 81 1.8 NNE 17 19 9 10 1021.2 1019.9 0.0
 
Date/Time
EST
Temp
°C
App
Temp
°C
Dew
Point
Rel
Hum
%
Delta-T
°C
Wind Press
QNH
hPa
Press
MSL
hPa
Rain
since 9 am
mm
Dir
 
Spd
km/h
Gust
km/h
Spd
kts
Gust
kts
21/11:30pm 16.5 14.8 12.5 77 2.3 NNE 13 19 7 10 1021.5 - 0.0
21/11:00pm 15.0 13.3 11.2 78 2.1 E 11 15 6 8 1021.6 - 0.0
21/10:30pm 17.2 15.5 12.5 74 2.7 NE 13 19 7 10 1021.5 - 0.0
21/10:00pm 16.2 14.4 12.2 77 2.2 NE 13 19 7 10 1021.4 - 0.0
21/09:30pm 15.4 13.5 10.6 73 2.6 NNE 11 13 6 7 1021.5 - 0.0
21/09:00pm 16.4 14.1 11.6 73 2.6 NNE 15 17 8 9 1021.2 1019.9 0.0
21/08:30pm 16.9 14.8 11.2 69 3.1 NNE 13 15 7 8 1021.0 - 0.0
21/08:00pm 17.0 14.9 11.3 69 3.1 NE 13 15 7 8 1020.7 - 0.0
21/07:30pm 19.1 16.8 11.7 62 4.2 NE 15 17 8 9 1020.6 - 0.0
21/07:00pm 18.7 16.8 11.8 64 3.9 NE 13 15 7 8 1020.3 - 0.0
21/06:30pm 19.4 16.8 11.9 62 4.2 NE 17 17 9 9 1019.9 - 0.0
21/06:00pm 20.0 18.1 10.4 54 5.3 NE 11 15 6 8 1019.5 1018.2 0.0
21/05:30pm 22.9 21.7 10.3 45 7.0 N 7 9 4 5 1019.2 - 0.0
21/05:00pm 25.6 24.9 8.6 34 9.4 N 2 6 1 3 1019.0 - 0.0
21/04:30pm 26.9 26.2 8.4 31 10.2 N 2 6 1 3 1018.7 - 0.0
21/04:00pm 26.5 24.7 8.0 31 10.1 NNE 7 13 4 7 1018.7 - 0.0
21/03:30pm 26.7 24.3 8.6 32 10.0 NNE 11 17 6 9 1018.7 - 0.0
21/03:00pm 26.8 25.1 8.3 31 10.2 N 7 17 4 9 1018.8 1017.5 0.0
21/02:30pm 26.8 25.2 8.7 32 10.0 N 7 15 4 8 1018.9 - 0.0
21/02:00pm 26.9 25.4 9.3 33 9.9 W 7 19 4 10 1019.1 - 0.0
21/01:30pm 26.5 25.1 8.9 33 9.8 W 6 11 3 6 1019.3 - 0.0
21/01:00pm 26.9 25.4 10.6 36 9.3 NW 9 13 5 7 1019.8 - 0.0
21/12:30pm 25.9 24.2 9.7 36 9.1 NNW 9 17 5 9 1020.3 - 0.0
21/12:00pm 25.9 23.9 10.1 37 8.9 N 11 17 6 9 1020.7 1019.5 0.0
21/11:30am 25.0 22.7 10.5 40 8.2 NW 13 20 7 11 1021.3 - 0.0
21/11:00am 25.1 24.3 13.0 47 7.2 NNW 9 17 5 9 1021.7 - 0.0
21/10:30am 23.9 21.7 10.9 44 7.4 NNW 13 20 7 11 1022.1 - 0.0
21/10:00am 23.3 21.4 11.7 48 6.7 NNW 13 17 7 9 1022.3 - 0.0
21/09:30am 22.2 21.7 12.7 55 5.5 N 7 13 4 7 1022.3 - 0.0
21/09:00am 20.8 20.4 13.0 61 4.5 NNW 7 11 4 6 1022.4 1021.1 0.0
21/08:30am 19.6 19.4 13.1 66 3.8 NW 6 7 3 4 1022.2 - 0.0
21/08:00am 18.1 17.8 13.2 73 2.8 SSE 7 9 4 5 1022.1 - 0.0
21/07:30am 15.8 15.5 13.3 85 1.4 SSE 7 7 4 4 1021.8 - 0.0
21/07:00am 12.7 11.3 10.9 89 1.0 SSE 9 11 5 6 1021.4 - 0.0
21/06:30am 10.7 8.9 9.3 91 0.7 SE 9 11 5 6 1021.0 - 0.0
21/06:00am 10.2 8.2 8.5 89 0.8 E 9 11 5 6 1020.5 1019.3 0.0
21/05:30am 10.5 8.1 8.6 88 1.0 E 11 13 6 7 1020.2 - 0.0
21/05:00am 11.4 9.2 9.5 88 1.0 ENE 11 13 6 7 1019.8 - 0.0
21/04:30am 10.5 8.0 8.3 86 1.1 ESE 11 13 6 7 1019.5 - 0.0
21/04:00am 11.5 9.7 9.4 87 1.1 ESE 9 11 5 6 1019.3 - 0.0
21/03:30am 12.2 10.5 9.8 85 1.2 E 9 11 5 6 1019.2 - 0.0
21/03:00am 12.1 10.5 8.6 79 1.8 NE 7 11 4 6 1019.1 1017.8 0.0
21/02:30am 14.3 12.1 10.9 80 1.8 NE 13 15 7 8 1018.9 - 0.0
21/02:00am 15.2 13.2 11.6 79 2.0 NE 13 15 7 8 1019.0 - 0.0
21/01:30am 15.0 14.1 11.2 78 2.1 NNE 7 9 4 5 1019.1 - 0.0
21/01:00am 15.2 13.6 11.4 78 2.1 NE 11 13 6 7 1019.2 - 0.0
21/12:30am 14.8 13.2 11.4 80 1.9 NE 11 13 6 7 1019.4 - 0.0
21/12:00am 15.1 13.0 11.1 77 2.2 NE 13 15 7 8 1019.5 1018.2 0.0
 
Date/Time
EST
Temp
°C
App
Temp
°C
Dew
Point
Rel
Hum
%
Delta-T
°C
Wind Press
QNH
hPa
Press
MSL
hPa
Rain
since 9 am
mm
Dir
 
Spd
km/h
Gust
km/h
Spd
kts
Gust
kts
20/11:30pm 14.6 13.5 10.8 78 2.0 NNE 7 11 4 6 1019.6 - 0.0
20/11:00pm 12.1 10.4 8.4 78 1.9 NE 7 11 4 6 1019.6 - 0.0
20/10:30pm 12.6 9.8 8.7 77 2.0 NNE 13 15 7 8 1019.6 - 0.0
20/10:00pm 13.0 10.3 9.1 77 2.0 NE 13 13 7 7 1019.7 - 0.0
20/09:30pm 12.8 10.8 8.7 76 2.1 NE 9 13 5 7 1019.6 - 0.0
20/09:00pm 13.1 11.1 8.8 75 2.2 ENE 9 11 5 6 1019.4 1018.1 0.0
20/08:30pm 13.5 11.1 8.8 73 2.4 NNE 11 13 6 7 1019.3 - 0.0
20/08:00pm 15.0 12.4 9.4 69 2.9 NE 13 15 7 8 1019.1 - 0.0
20/07:30pm 16.0 14.2 9.4 65 3.5 NNE 9 13 5 7 1018.9 - 0.0

Other Formats:

Comma delimited format used in spreadsheet applications
http://www.bom.gov.au/fwo/IDQ60801/IDQ60801.94552.axf

JavaScript Object Notation format (JSON) in row-major order
http://www.bom.gov.au/fwo/IDQ60801/IDQ60801.94552.json